Time;durP1;ratioP1;P1;durP2;ratioP2;P2;SDS_P1;SDS_P2;PMS_P1;PMS_P2;Temp;Humidity;BMP_temperature;BMP_pressure;BME280_temperature;BME280_humidity;BME280_pressure;Samples;Min_cycle;Max_cycle;Signal;HPM_P1;HPM_P2
2023/10/14 00:01:48;;;;;;;8.25;3.72;;;21.20;99.90;;;;;;4926035;29;20182;-30
2023/10/14 00:06:43;;;;;;;6.93;4.40;;;21.40;99.90;;;;;;4913046;29;20266;-29
2023/10/14 00:09:12;;;;;;;6.95;4.32;;;21.50;99.90;;;;;;4934645;29;20190;-29
2023/10/14 00:11:46;;;;;;;7.53;4.25;;;21.60;99.90;;;;;;4913923;29;20201;-30
2023/10/14 00:14:18;;;;;;;7.60;4.68;;;21.70;99.90;;;;;;4899165;29;20182;-29
2023/10/14 00:16:51;;;;;;;7.43;4.35;;;21.70;99.90;;;;;;4920080;29;20224;-30
2023/10/14 00:19:24;;;;;;;9.02;4.07;;;21.60;99.90;;;;;;4932431;29;20213;-30
2023/10/14 00:21:50;;;;;;;8.82;4.82;;;21.60;99.90;;;;;;4918993;29;20182;-29
2023/10/14 00:24:27;;;;;;;8.35;4.70;;;21.50;99.90;;;;;;4897048;29;20195;-30
2023/10/14 00:26:54;;;;;;;7.85;4.90;;;21.50;99.90;;;;;;4902790;29;20174;-30
2023/10/14 00:29:20;;;;;;;7.22;4.82;;;21.40;99.90;;;;;;4915401;29;20642;-30
2023/10/14 00:31:50;;;;;;;8.73;4.63;;;21.40;99.90;;;;;;4916303;29;20190;-29
2023/10/14 00:34:18;;;;;;;7.63;4.82;;;21.40;99.90;;;;;;4916033;29;20191;-29
2023/10/14 00:36:44;;;;;;;7.07;4.90;;;21.30;99.90;;;;;;4906493;29;20241;-29
2023/10/14 00:39:14;;;;;;;6.63;4.75;;;21.30;99.90;;;;;;4931164;28;20210;-29
2023/10/14 00:41:42;;;;;;;8.18;4.63;;;21.30;99.90;;;;;;4942356;29;20186;-30
2023/10/14 00:44:09;;;;;;;8.98;5.00;;;21.20;99.90;;;;;;4916729;29;20183;-29
2023/10/14 00:46:42;;;;;;;6.05;5.13;;;21.10;99.90;;;;;;4913307;29;20207;-30
2023/10/14 00:49:12;;;;;;;10.07;5.10;;;21.00;99.90;;;;;;4916511;29;20202;-29
2023/10/14 00:51:44;;;;;;;6.22;4.72;;;21.00;99.90;;;;;;4929888;29;20193;-29
2023/10/14 00:54:11;;;;;;;7.03;4.53;;;20.90;99.90;;;;;;4922926;29;20183;-29
2023/10/14 00:56:40;;;;;;;6.47;4.68;;;20.80;99.90;;;;;;4907745;29;20674;-29
2023/10/14 00:59:08;;;;;;;10.65;5.28;;;20.70;99.90;;;;;;4917147;29;20190;-30
2023/10/14 01:04:19;;;;;;;7.63;5.53;;;20.50;99.90;;;;;;4912138;29;20216;-30
2023/10/14 01:12:20;;;;;;;7.97;5.13;;;20.30;99.90;;;;;;4928153;29;20212;-30
2023/10/14 01:14:52;;;;;;;9.43;5.07;;;20.20;99.90;;;;;;4942912;29;20316;-30
2023/10/14 01:17:30;;;;;;;8.20;5.55;;;20.20;99.90;;;;;;4931620;29;20639;-30
2023/10/14 01:19:59;;;;;;;9.98;5.43;;;20.20;99.90;;;;;;4929375;29;20214;-30
2023/10/14 01:22:29;;;;;;;7.65;5.60;;;20.20;99.90;;;;;;4932249;29;20186;-30
2023/10/14 01:24:55;;;;;;;8.55;5.10;;;20.20;99.90;;;;;;4926242;29;20198;-29
2023/10/14 01:27:28;;;;;;;10.32;5.47;;;20.20;99.90;;;;;;4918414;29;20182;-30
2023/10/14 01:29:54;;;;;;;10.48;5.82;;;20.20;99.90;;;;;;4926326;29;20214;-29
2023/10/14 01:37:56;;;;;;;8.32;5.93;;;20.20;99.90;;;;;;4931812;29;20190;-29
2023/10/14 01:42:57;;;;;;;8.15;5.60;;;20.20;99.90;;;;;;4932072;29;20190;-29
2023/10/14 01:45:27;;;;;;;8.93;5.43;;;20.20;99.90;;;;;;4911594;29;20210;-29
2023/10/14 01:48:05;;;;;;;9.98;5.68;;;20.30;99.90;;;;;;4918179;29;20189;-29
2023/10/14 01:50:32;;;;;;;8.57;5.20;;;20.20;99.90;;;;;;4922272;29;20193;-29
2023/10/14 01:53:01;;;;;;;9.60;5.55;;;20.20;99.90;;;;;;4919994;29;20285;-30
2023/10/14 01:55:26;;;;;;;6.20;5.60;;;20.20;99.90;;;;;;4898590;29;20261;-29
2023/10/14 01:57:53;;;;;;;7.32;5.15;;;20.30;99.90;;;;;;4945937;28;20190;-30
2023/10/14 02:00:25;;;;;;;7.05;5.30;;;20.30;99.90;;;;;;4927786;29;20201;-29
2023/10/14 02:03:05;;;;;;;8.73;5.55;;;20.30;99.90;;;;;;4937010;29;20234;-30
2023/10/14 02:05:42;;;;;;;8.73;5.10;;;20.30;99.90;;;;;;4905251;29;20277;-29
2023/10/14 02:08:15;;;;;;;6.07;5.50;;;20.30;99.90;;;;;;4930585;29;20196;-30
2023/10/14 02:10:47;;;;;;;10.70;5.65;;;20.20;99.90;;;;;;4910669;29;20205;-29
2023/10/14 02:13:21;;;;;;;5.75;5.03;;;20.20;99.90;;;;;;4927619;29;20186;-30
2023/10/14 02:15:47;;;;;;;7.43;5.22;;;20.30;99.90;;;;;;4910094;29;20292;-30
2023/10/14 02:18:15;;;;;;;8.93;5.97;;;20.20;99.90;;;;;;4910074;29;20650;-29
2023/10/14 02:20:56;;;;;;;8.45;5.68;;;20.20;99.90;;;;;;4907377;29;20211;-30
2023/10/14 02:23:43;;;;;;;6.68;5.35;;;20.20;99.90;;;;;;4927287;29;20238;-30
2023/10/14 02:26:36;;;;;;;8.73;5.68;;;20.20;99.90;;;;;;4928530;29;20229;-31
2023/10/14 02:29:06;;;;;;;10.85;5.45;;;20.20;99.90;;;;;;4904370;29;20201;-30
2023/10/14 02:31:35;;;;;;;7.43;5.68;;;20.10;99.90;;;;;;4909380;29;20197;-31
2023/10/14 02:34:06;;;;;;;7.53;5.13;;;20.20;99.90;;;;;;4908124;29;20205;-30
2023/10/14 02:36:41;;;;;;;5.53;4.95;;;20.10;99.90;;;;;;4926340;29;20208;-30
2023/10/14 02:39:17;;;;;;;8.30;5.43;;;20.10;99.90;;;;;;4925478;29;20179;-30
2023/10/14 02:41:59;;;;;;;8.60;5.22;;;20.10;99.90;;;;;;4911612;29;20182;-30
2023/10/14 02:47:37;;;;;;;8.93;5.85;;;20.00;99.90;;;;;;4902573;29;20228;-30
2023/10/14 02:50:12;;;;;;;8.15;5.72;;;20.00;99.90;;;;;;4918201;29;20269;-29
2023/10/14 02:52:38;;;;;;;8.05;5.20;;;19.90;99.90;;;;;;4927135;29;20293;-30
2023/10/14 02:55:24;;;;;;;6.38;5.75;;;19.90;99.90;;;;;;4907173;29;20289;-30
2023/10/14 02:57:50;;;;;;;10.77;6.07;;;19.90;99.90;;;;;;4927755;29;20228;-30
2023/10/14 03:00:32;;;;;;;7.25;5.82;;;19.90;99.90;;;;;;4940640;29;20246;-30
2023/10/14 03:03:12;;;;;;;7.28;5.85;;;19.80;99.90;;;;;;4909198;29;20194;-30
2023/10/14 03:08:12;;;;;;;7.18;5.57;;;19.80;99.90;;;;;;4928825;29;20182;-30
2023/10/14 03:10:45;;;;;;;6.75;5.57;;;19.80;99.90;;;;;;4936198;29;20190;-30
2023/10/14 03:13:14;;;;;;;8.98;5.75;;;19.70;99.90;;;;;;4919650;29;20183;-30
2023/10/14 03:15:47;;;;;;;8.40;5.55;;;19.70;99.90;;;;;;4910100;29;20217;-29
2023/10/14 03:18:16;;;;;;;10.75;5.70;;;19.70;99.90;;;;;;4940972;29;20191;-30
2023/10/14 03:20:59;;;;;;;6.78;5.40;;;19.60;99.90;;;;;;4898464;29;20213;-30
2023/10/14 03:23:27;;;;;;;8.18;6.03;;;19.60;99.90;;;;;;4915783;29;20186;-28
2023/10/14 03:26:01;;;;;;;9.32;6.38;;;19.50;99.90;;;;;;4908769;29;20206;-30
2023/10/14 03:28:27;;;;;;;8.07;6.25;;;19.50;99.90;;;;;;4909988;29;20190;-29
2023/10/14 03:31:00;;;;;;;8.23;6.40;;;19.40;99.90;;;;;;4925628;29;20188;-30
2023/10/14 03:33:29;;;;;;;10.13;6.10;;;19.40;99.90;;;;;;4927515;29;20280;-30
2023/10/14 03:36:02;;;;;;;12.05;6.20;;;19.40;99.90;;;;;;4928189;29;20220;-30
2023/10/14 03:41:29;;;;;;;8.70;6.75;;;19.30;99.90;;;;;;4936634;29;20216;-30
2023/10/14 03:46:35;;;;;;;7.70;6.05;;;19.30;99.90;;;;;;4939657;29;20245;-30
2023/10/14 03:49:20;;;;;;;7.35;6.18;;;19.30;99.90;;;;;;4933337;29;20270;-30
2023/10/14 03:51:56;;;;;;;9.93;6.32;;;19.20;99.90;;;;;;4908787;29;20181;-30
2023/10/14 03:54:30;;;;;;;9.45;6.15;;;19.20;99.90;;;;;;4906329;29;20181;-29
2023/10/14 03:57:03;;;;;;;8.90;6.03;;;19.10;99.90;;;;;;4937015;29;20178;-29
2023/10/14 03:59:33;;;;;;;9.77;5.90;;;19.20;99.90;;;;;;4913219;29;20201;-29
2023/10/14 04:02:05;;;;;;;7.30;6.32;;;19.20;99.90;;;;;;4923125;29;20178;-29
2023/10/14 04:04:31;;;;;;;8.38;6.68;;;19.20;99.90;;;;;;4917097;29;20217;-29
2023/10/14 04:09:44;;;;;;;8.55;6.13;;;19.20;99.90;;;;;;4935387;29;20187;-29
2023/10/14 04:12:12;;;;;;;9.00;6.43;;;19.20;99.90;;;;;;4906016;29;20182;-29
2023/10/14 04:14:40;;;;;;;8.82;6.40;;;19.20;99.90;;;;;;4914706;29;20214;-29
2023/10/14 04:19:44;;;;;;;7.80;6.00;;;19.20;99.90;;;;;;4939578;29;20210;-29
2023/10/14 04:27:36;;;;;;;9.38;6.53;;;19.20;99.90;;;;;;4943921;29;20178;-30
2023/10/14 04:30:16;;;;;;;10.15;6.38;;;19.20;99.90;;;;;;4908527;29;20190;-29
2023/10/14 04:32:47;;;;;;;10.27;6.28;;;19.20;99.90;;;;;;4923317;29;20224;-30
2023/10/14 04:35:13;;;;;;;8.63;6.18;;;19.30;99.90;;;;;;4926861;29;20202;-30
2023/10/14 04:37:51;;;;;;;9.63;6.05;;;19.40;99.90;;;;;;4918010;29;20194;-29
2023/10/14 04:40:39;;;;;;;11.18;6.60;;;19.40;99.90;;;;;;4925303;29;20241;-31
2023/10/14 04:46:16;;;;;;;10.25;6.40;;;19.30;99.90;;;;;;4881371;29;20218;-30
2023/10/14 04:48:51;;;;;;;9.32;6.07;;;19.20;99.90;;;;;;4912108;29;20192;-30
2023/10/14 04:51:19;;;;;;;10.75;6.78;;;19.10;99.90;;;;;;4911402;29;20206;-30
2023/10/14 04:53:49;;;;;;;15.15;5.95;;;19.10;99.90;;;;;;4904786;29;20240;-30
2023/10/14 04:56:22;;;;;;;7.53;6.00;;;19.00;99.90;;;;;;4911474;29;20280;-30
2023/10/14 04:58:52;;;;;;;11.07;6.20;;;19.00;99.90;;;;;;4939703;29;20237;-30
2023/10/14 05:01:18;;;;;;;9.65;6.25;;;19.00;99.90;;;;;;4943944;29;20213;-29
2023/10/14 05:03:46;;;;;;;8.10;6.00;;;18.90;99.90;;;;;;4928527;29;20193;-30
2023/10/14 05:08:44;;;;;;;9.02;5.82;;;18.90;99.90;;;;;;4931758;29;20253;-30
2023/10/14 05:11:13;;;;;;;10.30;5.43;;;18.90;99.90;;;;;;4909979;29;20189;-29
2023/10/14 05:13:42;;;;;;;12.60;6.15;;;18.90;99.90;;;;;;4924748;29;20181;-30
2023/10/14 05:16:26;;;;;;;11.07;5.50;;;18.90;99.90;;;;;;4912670;29;20225;-31
2023/10/14 05:19:07;;;;;;;10.32;5.85;;;18.90;99.90;;;;;;4902049;29;20197;-30
2023/10/14 05:21:36;;;;;;;8.48;5.30;;;18.90;99.90;;;;;;4909065;29;20190;-30
2023/10/14 05:24:05;;;;;;;8.02;5.93;;;19.00;99.90;;;;;;4912119;29;20186;-30
2023/10/14 05:26:36;;;;;;;8.20;5.15;;;19.00;99.90;;;;;;4914709;29;20237;-30
2023/10/14 05:29:16;;;;;;;6.35;4.78;;;19.00;99.90;;;;;;4913900;29;20204;-30
2023/10/14 05:31:49;;;;;;;7.88;5.20;;;19.00;99.90;;;;;;4908834;29;20197;-29
2023/10/14 05:34:21;;;;;;;7.22;5.03;;;19.10;99.90;;;;;;4926090;29;20189;-29
2023/10/14 05:36:55;;;;;;;7.47;5.28;;;19.10;99.90;;;;;;4909402;29;20203;-30
2023/10/14 05:39:36;;;;;;;8.60;5.07;;;19.10;99.90;;;;;;4908261;29;20297;-30
2023/10/14 05:42:04;;;;;;;10.23;5.35;;;19.10;99.90;;;;;;4903109;29;20703;-30
2023/10/14 05:44:30;;;;;;;7.70;5.50;;;19.10;99.90;;;;;;4919573;29;20250;-30
2023/10/14 05:46:56;;;;;;;6.97;4.47;;;19.20;99.90;;;;;;4939146;29;20179;-30
2023/10/14 05:49:24;;;;;;;8.90;5.30;;;19.20;99.90;;;;;;4917364;29;20186;-30
2023/10/14 05:51:53;;;;;;;9.80;5.40;;;19.20;99.90;;;;;;4908148;29;20195;-29
2023/10/14 05:54:25;;;;;;;7.53;5.13;;;19.20;99.90;;;;;;4922426;29;20190;-29
2023/10/14 05:56:53;;;;;;;8.27;4.95;;;19.20;99.90;;;;;;4907745;29;20200;-29
2023/10/14 05:59:19;;;;;;;10.88;5.40;;;19.20;99.90;;;;;;4921438;29;20190;-29
2023/10/14 06:01:46;;;;;;;6.55;4.88;;;19.20;99.90;;;;;;4931848;29;20269;-31
2023/10/14 06:04:14;;;;;;;8.32;5.05;;;19.20;99.90;;;;;;4934487;29;20178;-30
2023/10/14 06:06:40;;;;;;;8.93;5.50;;;19.20;99.90;;;;;;4950589;23;20214;-28
2023/10/14 06:09:09;;;;;;;9.25;5.30;;;19.20;99.90;;;;;;4955027;28;20200;-28
2023/10/14 06:11:37;;;;;;;8.48;5.47;;;19.20;99.90;;;;;;4955547;28;20240;-31
2023/10/14 06:14:03;;;;;;;7.55;5.35;;;19.20;99.90;;;;;;4966944;28;20188;-29
2023/10/14 06:16:31;;;;;;;7.32;5.40;;;19.10;99.90;;;;;;4960506;28;20239;-28
2023/10/14 06:18:58;;;;;;;7.28;5.30;;;19.10;99.90;;;;;;4967443;28;20193;-30
2023/10/14 06:21:27;;;;;;;9.57;5.40;;;19.10;99.90;;;;;;4950871;28;20706;-28
2023/10/14 06:23:54;;;;;;;8.13;5.25;;;19.10;99.90;;;;;;4968078;28;20227;-32
2023/10/14 06:26:19;;;;;;;8.18;5.25;;;19.10;99.90;;;;;;4954451;28;20197;-30
2023/10/14 06:28:48;;;;;;;8.73;5.70;;;19.10;99.90;;;;;;4941305;28;20184;-30
2023/10/14 06:31:18;;;;;;;8.63;5.25;;;19.10;99.90;;;;;;4948610;28;20689;-30
2023/10/14 06:33:44;;;;;;;9.52;5.60;;;19.10;99.90;;;;;;4942124;29;20240;-28
2023/10/14 06:36:14;;;;;;;7.47;5.53;;;19.10;99.90;;;;;;4944469;28;20204;-29
2023/10/14 06:38:46;;;;;;;10.27;6.05;;;19.10;99.90;;;;;;4953022;28;20274;-28
2023/10/14 06:41:13;;;;;;;11.57;6.25;;;19.00;99.90;;;;;;4958447;28;20204;-29
2023/10/14 06:43:39;;;;;;;8.23;5.57;;;19.00;99.90;;;;;;4974335;28;20245;-28
2023/10/14 06:46:06;;;;;;;7.68;5.70;;;18.90;99.90;;;;;;4947986;28;20200;-29
2023/10/14 06:48:33;;;;;;;10.93;6.40;;;18.90;99.90;;;;;;4955655;28;20653;-29
2023/10/14 06:50:59;;;;;;;11.85;6.10;;;18.80;99.90;;;;;;4971676;28;20223;-31
2023/10/14 06:53:28;;;;;;;10.55;5.63;;;18.70;99.90;;;;;;4954691;28;20243;-30
2023/10/14 06:55:55;;;;;;;11.02;6.18;;;18.70;99.90;;;;;;4970809;28;20223;-30
2023/10/14 06:58:21;;;;;;;9.55;6.28;;;18.60;99.90;;;;;;4970817;28;20181;-30
2023/10/14 07:00:51;;;;;;;14.45;6.65;;;18.50;99.90;;;;;;4955473;28;20204;-30
2023/10/14 07:03:17;;;;;;;10.52;6.57;;;18.30;99.90;;;;;;4971697;28;20307;-30
2023/10/14 07:05:48;;;;;;;10.90;6.50;;;18.10;99.90;;;;;;4970494;28;20226;-29
2023/10/14 07:08:15;;;;;;;11.35;6.32;;;18.10;99.90;;;;;;4959863;28;20192;-29
2023/10/14 07:10:41;;;;;;;11.05;6.82;;;18.00;99.90;;;;;;4962930;28;20181;-29
2023/10/14 07:13:08;;;;;;;13.57;6.82;;;17.90;99.90;;;;;;4973110;28;20271;-29
2023/10/14 07:15:38;;;;;;;10.68;6.40;;;17.90;99.90;;;;;;4971022;28;20295;-29
2023/10/14 07:18:04;;;;;;;9.73;6.43;;;17.90;99.90;;;;;;4955317;28;20188;-30
2023/10/14 07:20:30;;;;;;;10.25;6.90;;;17.90;99.90;;;;;;4954802;28;20205;-32
2023/10/14 07:23:00;;;;;;;10.45;7.03;;;17.90;99.90;;;;;;4972086;28;20216;-30
2023/10/14 07:25:30;;;;;;;10.80;6.45;;;17.90;99.90;;;;;;4955318;28;20228;-29
2023/10/14 07:27:59;;;;;;;8.77;5.90;;;18.00;99.90;;;;;;4955337;28;20271;-30
2023/10/14 07:30:29;;;;;;;9.63;5.93;;;18.10;99.90;;;;;;4971545;28;20203;-30
2023/10/14 07:32:55;;;;;;;10.45;5.43;;;18.20;99.90;;;;;;4970945;28;20176;-29
2023/10/14 07:35:22;;;;;;;9.27;6.03;;;18.30;99.90;;;;;;4955048;28;20287;-30
2023/10/14 07:37:49;;;;;;;10.07;6.00;;;18.40;99.90;;;;;;4940571;28;20198;-29
2023/10/14 07:40:24;;;;;;;8.27;5.65;;;18.40;99.90;;;;;;4946593;28;20236;-29
2023/10/14 07:42:53;;;;;;;10.90;6.15;;;18.40;99.90;;;;;;4954915;28;20187;-30
2023/10/14 07:45:20;;;;;;;12.63;6.18;;;18.50;99.90;;;;;;4968609;28;20204;-29
2023/10/14 07:47:48;;;;;;;10.45;5.88;;;18.50;99.90;;;;;;4987176;28;20239;-29
2023/10/14 07:50:15;;;;;;;11.15;6.53;;;18.50;99.90;;;;;;4953929;28;20220;-30
2023/10/14 07:52:41;;;;;;;13.65;5.55;;;18.60;99.90;;;;;;4955339;28;20188;-29
2023/10/14 07:55:10;;;;;;;10.10;5.60;;;18.70;99.90;;;;;;4971020;28;20204;-29
2023/10/14 07:57:40;;;;;;;10.68;5.93;;;18.80;99.90;;;;;;4954505;28;20185;-29
2023/10/14 08:00:14;;;;;;;9.73;5.75;;;18.90;99.90;;;;;;4972270;28;20208;-30
2023/10/14 08:02:41;;;;;;;8.80;5.63;;;19.00;99.90;;;;;;4970344;28;20195;-29
2023/10/14 08:05:08;;;;;;;11.68;5.95;;;19.00;99.90;;;;;;4971020;28;20216;-29
2023/10/14 08:07:40;;;;;;;9.23;5.28;;;19.00;99.90;;;;;;4955064;28;20181;-29
2023/10/14 08:10:17;;;;;;;9.35;4.50;;;19.00;99.90;;;;;;4940861;28;20721;-30
2023/10/14 08:12:47;;;;;;;9.60;5.30;;;18.90;99.90;;;;;;4971055;28;20208;-29
2023/10/14 08:15:14;;;;;;;7.25;4.72;;;18.90;99.90;;;;;;4970740;28;20208;-30
2023/10/14 08:17:44;;;;;;;8.77;4.30;;;18.90;99.90;;;;;;4954748;28;20199;-29
2023/10/14 08:20:13;;;;;;;7.38;4.40;;;18.90;99.90;;;;;;4972150;28;20301;-29
2023/10/14 08:22:41;;;;;;;7.15;4.35;;;18.80;99.90;;;;;;4954682;28;20181;-29
2023/10/14 08:25:07;;;;;;;10.10;4.85;;;18.80;99.90;;;;;;4970926;28;20291;-29
2023/10/14 08:27:36;;;;;;;7.93;4.75;;;18.70;99.90;;;;;;4954131;28;20184;-30
2023/10/14 08:30:10;;;;;;;10.27;4.70;;;18.70;99.90;;;;;;4970208;28;20200;-30
2023/10/14 08:32:42;;;;;;;8.00;4.70;;;18.60;99.90;;;;;;4970566;28;20246;-30
2023/10/14 08:35:14;;;;;;;7.40;4.50;;;18.50;99.90;;;;;;4970578;28;20204;-31
2023/10/14 08:38:00;;;;;;;5.88;3.85;;;18.50;99.90;;;;;;4962229;28;20185;-31
2023/10/14 08:40:29;;;;;;;7.95;4.88;;;18.50;99.90;;;;;;4962189;28;20239;-31
2023/10/14 08:42:57;;;;;;;7.68;4.07;;;18.50;99.90;;;;;;4954605;28;20187;-31
2023/10/14 08:45:26;;;;;;;6.60;3.95;;;18.50;99.90;;;;;;4951242;28;20213;-31
2023/10/14 08:47:54;;;;;;;9.18;4.43;;;18.50;99.90;;;;;;4973084;28;20176;-31
2023/10/14 08:50:24;;;;;;;7.90;4.35;;;18.60;99.90;;;;;;4958035;28;20180;-31
2023/10/14 08:52:56;;;;;;;7.38;3.45;;;18.60;99.90;;;;;;4973761;28;20223;-31
2023/10/14 08:55:22;;;;;;;5.60;3.60;;;18.60;99.90;;;;;;4957728;28;20209;-31
2023/10/14 08:57:50;;;;;;;8.55;3.53;;;18.60;99.90;;;;;;4956969;28;20220;-31
2023/10/14 09:00:22;;;;;;;7.30;3.65;;;18.80;99.90;;;;;;4972561;28;20204;-31
2023/10/14 09:02:53;;;;;;;6.03;3.05;;;18.90;99.90;;;;;;4973734;28;20180;-31
2023/10/14 09:05:20;;;;;;;5.65;2.97;;;18.90;99.90;;;;;;4973455;28;20216;-31
2023/10/14 09:07:50;;;;;;;5.97;3.33;;;19.00;99.90;;;;;;4957375;28;20185;-31
2023/10/14 09:10:20;;;;;;;3.95;3.58;;;19.00;99.90;;;;;;4965532;28;20247;-31
2023/10/14 09:13:03;;;;;;;5.88;3.38;;;19.20;99.90;;;;;;4974761;28;20188;-31
2023/10/14 09:15:40;;;;;;;7.07;3.33;;;19.40;99.90;;;;;;4973442;28;20217;-31
2023/10/14 09:18:13;;;;;;;4.05;3.15;;;19.60;99.90;;;;;;4972708;28;20208;-31
2023/10/14 09:20:39;;;;;;;9.05;3.50;;;19.90;99.90;;;;;;4974764;28;20267;-31
2023/10/14 09:23:18;;;;;;;6.10;3.92;;;20.10;99.90;;;;;;4957064;28;20239;-31
2023/10/14 09:25:45;;;;;;;51.40;42.83;;;20.20;99.90;;;;;;4956968;28;20208;-31
2023/10/14 09:28:12;;;;;;;8.70;7.22;;;20.20;99.90;;;;;;4956393;28;20177;-31
2023/10/14 09:30:44;;;;;;;6.20;5.20;;;20.10;99.90;;;;;;4973379;28;20263;-31
2023/10/14 09:33:15;;;;;;;19.13;15.25;;;20.00;99.90;;;;;;4957038;28;20181;-31
2023/10/14 09:35:50;;;;;;;10.02;5.47;;;20.00;99.90;;;;;;4956158;28;20212;-31
2023/10/14 09:38:22;;;;;;;5.82;3.60;;;19.90;99.90;;;;;;4950628;28;20193;-31
2023/10/14 09:41:03;;;;;;;4.38;2.78;;;19.90;99.90;;;;;;4962376;28;20208;-31
2023/10/14 09:43:39;;;;;;;8.98;4.55;;;19.80;99.90;;;;;;4956955;28;20184;-31
2023/10/14 09:46:09;;;;;;;5.38;3.10;;;19.70;99.90;;;;;;4968584;28;20208;-31
2023/10/14 09:48:35;;;;;;;4.85;2.08;;;19.50;99.90;;;;;;4973047;28;20176;-31
2023/10/14 09:51:03;;;;;;;4.25;1.70;;;19.40;99.90;;;;;;4974080;28;20212;-31
2023/10/14 09:53:39;;;;;;;3.45;2.10;;;19.10;99.90;;;;;;4956702;28;20188;-31
2023/10/14 09:56:11;;;;;;;4.20;1.90;;;18.90;99.90;;;;;;4956553;28;20204;-30
2023/10/14 09:58:42;;;;;;;5.22;2.25;;;18.70;99.90;;;;;;4955164;28;20204;-30
2023/10/14 10:01:16;;;;;;;2.97;1.50;;;18.70;99.90;;;;;;4972688;28;20209;-29
2023/10/14 10:04:21;;;;;;;1.77;0.98;;;18.60;99.90;;;;;;4972751;28;20187;-30
2023/10/14 10:07:26;;;;;;;1.15;0.73;;;18.40;99.90;;;;;;4888487;29;20259;-30
2023/10/14 10:10:13;;;;;;;4.13;1.20;;;18.20;99.90;;;;;;4954731;28;20185;-30
2023/10/14 10:12:43;;;;;;;1.52;0.80;;;17.90;99.90;;;;;;4988605;28;20196;-30
2023/10/14 10:15:09;;;;;;;1.95;0.82;;;17.80;99.90;;;;;;4956158;28;20210;-30
2023/10/14 10:17:39;;;;;;;3.10;0.80;;;17.70;99.90;;;;;;4971763;28;20192;-30
2023/10/14 10:20:11;;;;;;;1.80;0.70;;;17.60;99.90;;;;;;4972180;28;20228;-30
2023/10/14 10:22:55;;;;;;;1.08;0.90;;;17.40;99.90;;;;;;4972155;28;20184;-31
2023/10/14 10:25:23;;;;;;;2.60;0.60;;;17.30;99.90;;;;;;4955884;28;20232;-30
2023/10/14 10:27:50;;;;;;;2.67;0.80;;;17.10;99.90;;;;;;4955878;28;20189;-29
2023/10/14 10:30:20;;;;;;;2.53;0.60;;;17.10;99.90;;;;;;4972135;28;20187;-30
2023/10/14 10:32:51;;;;;;;0.73;0.60;;;17.00;99.90;;;;;;4972120;28;20267;-29
2023/10/14 10:35:19;;;;;;;1.05;0.70;;;17.00;99.90;;;;;;4973321;28;20235;-30
2023/10/14 10:37:52;;;;;;;1.27;0.68;;;17.10;99.90;;;;;;4952354;28;20237;-30
2023/10/14 10:40:27;;;;;;;2.38;0.70;;;17.00;99.90;;;;;;4967080;28;20708;-30
2023/10/14 10:42:58;;;;;;;0.93;0.60;;;16.90;99.90;;;;;;4955712;28;20203;-30
2023/10/14 10:45:32;;;;;;;1.25;0.60;;;16.80;99.90;;;;;;4952934;28;20212;-30
2023/10/14 10:48:04;;;;;;;0.80;0.52;;;16.70;99.90;;;;;;4970789;28;20267;-30
2023/10/14 10:50:38;;;;;;;0.47;0.40;;;16.70;99.90;;;;;;4955313;28;20192;-30
2023/10/14 10:53:07;;;;;;;0.50;0.50;;;16.70;99.90;;;;;;4971617;28;20219;-30
2023/10/14 10:55:36;;;;;;;0.43;0.43;;;16.70;99.90;;;;;;4971361;28;20700;-31
2023/10/14 10:58:03;;;;;;;0.90;0.60;;;16.70;99.90;;;;;;4972861;28;20269;-30
2023/10/14 11:00:30;;;;;;;0.60;0.60;;;16.50;99.90;;;;;;4954352;28;20308;-36
2023/10/14 11:03:00;;;;;;;0.63;0.63;;;16.50;99.90;;;;;;4955533;28;20272;-29
2023/10/14 11:05:28;;;;;;;0.85;0.50;;;16.50;99.90;;;;;;4955244;28;20227;-32
2023/10/14 11:07:55;;;;;;;1.35;0.52;;;16.50;99.90;;;;;;4952696;28;20284;-35
2023/10/14 11:10:29;;;;;;;1.38;0.75;;;16.50;99.90;;;;;;4950187;28;20196;-37
2023/10/14 11:12:56;;;;;;;0.70;0.60;;;16.60;99.90;;;;;;4973294;28;20265;-32
2023/10/14 11:15:23;;;;;;;2.33;0.63;;;16.60;99.90;;;;;;4972456;28;20200;-29
2023/10/14 11:17:53;;;;;;;1.63;0.60;;;16.50;99.90;;;;;;4955086;28;20286;-29
2023/10/14 11:20:20;;;;;;;1.47;0.67;;;16.40;99.90;;;;;;4971479;28;20216;-28
2023/10/14 11:22:47;;;;;;;0.98;0.50;;;16.30;99.90;;;;;;4971048;28;20320;-30
2023/10/14 11:25:18;;;;;;;0.83;0.50;;;16.20;99.90;;;;;;4970888;28;20207;-31
2023/10/14 11:27:45;;;;;;;0.80;0.50;;;16.20;99.90;;;;;;4970686;28;20177;-32
2023/10/14 11:30:21;;;;;;;0.90;0.43;;;16.20;99.90;;;;;;4972733;28;20188;-31
2023/10/14 11:32:51;;;;;;;1.07;0.50;;;16.40;99.90;;;;;;4955027;28;20188;-33
2023/10/14 11:35:19;;;;;;;1.00;0.45;;;16.50;99.90;;;;;;4955412;28;20211;-33
2023/10/14 11:37:56;;;;;;;1.75;0.60;;;16.70;99.90;;;;;;4936133;28;20225;-32
2023/10/14 11:40:28;;;;;;;0.47;0.40;;;16.80;99.90;;;;;;4965242;28;20243;-32
2023/10/14 11:42:57;;;;;;;2.10;0.40;;;16.80;99.90;;;;;;4955675;28;20193;-33
2023/10/14 11:45:24;;;;;;;0.43;0.40;;;16.70;99.90;;;;;;4968684;28;20213;-30
2023/10/14 11:47:51;;;;;;;1.33;0.60;;;16.80;99.90;;;;;;4968989;28;20192;-31
2023/10/14 11:50:17;;;;;;;0.75;0.60;;;16.70;99.90;;;;;;4972766;28;20196;-31
2023/10/14 11:52:47;;;;;;;1.25;0.80;;;16.60;99.90;;;;;;4972461;28;20192;-29
2023/10/14 11:55:16;;;;;;;2.30;0.90;;;16.50;99.90;;;;;;4970907;28;20236;-29
2023/10/14 11:57:43;;;;;;;1.98;0.60;;;16.40;99.90;;;;;;4971113;28;20180;-29
2023/10/14 12:00:11;;;;;;;0.97;0.50;;;16.40;99.90;;;;;;4969874;28;20212;-31
2023/10/14 12:02:40;;;;;;;1.48;0.50;;;16.40;99.90;;;;;;4955278;28;20192;-31
2023/10/14 12:05:07;;;;;;;0.98;0.50;;;16.30;99.90;;;;;;4993233;23;20295;-33
2023/10/14 12:07:33;;;;;;;0.50;0.50;;;16.30;99.90;;;;;;4940211;28;20221;-32
2023/10/14 12:10:00;;;;;;;0.95;0.60;;;16.30;99.90;;;;;;4933614;28;20248;-33
2023/10/14 12:12:27;;;;;;;2.55;0.65;;;16.20;99.90;;;;;;4964619;28;20205;-33
2023/10/14 12:14:53;;;;;;;1.40;0.80;;;16.20;99.90;;;;;;4950002;28;20193;-33
2023/10/14 12:17:19;;;;;;;1.70;0.60;;;16.20;99.90;;;;;;4952393;28;20236;-33
2023/10/14 12:19:44;;;;;;;0.80;0.60;;;16.30;99.90;;;;;;4935606;28;20230;-33
2023/10/14 12:22:10;;;;;;;1.30;0.80;;;16.30;99.90;;;;;;4955469;29;20186;-33
2023/10/14 12:24:36;;;;;;;1.20;0.70;;;16.20;99.90;;;;;;4923035;29;20190;-33
2023/10/14 12:27:02;;;;;;;1.37;0.60;;;16.20;99.90;;;;;;4923079;29;20201;-33
2023/10/14 12:29:31;;;;;;;0.60;0.60;;;16.20;99.90;;;;;;4924873;29;20189;-33
2023/10/14 12:31:59;;;;;;;1.20;0.90;;;16.20;99.90;;;;;;4940316;29;20177;-33
2023/10/14 12:34:25;;;;;;;0.60;0.60;;;16.10;99.90;;;;;;4939370;29;20185;-33
2023/10/14 12:36:52;;;;;;;2.75;0.93;;;16.10;99.90;;;;;;4928907;29;20201;-33
2023/10/14 12:39:19;;;;;;;1.45;0.80;;;16.20;99.90;;;;;;4924054;29;20185;-33
2023/10/14 12:41:49;;;;;;;1.75;0.68;;;16.20;99.90;;;;;;4938574;29;20186;-33
2023/10/14 12:44:15;;;;;;;1.42;0.60;;;16.20;99.90;;;;;;4938758;29;20173;-33
2023/10/14 12:46:43;;;;;;;1.73;0.70;;;16.20;99.90;;;;;;4932521;29;20209;-33
2023/10/14 12:49:10;;;;;;;0.40;0.40;;;16.10;99.90;;;;;;4938860;29;20652;-33
2023/10/14 12:51:43;;;;;;;1.27;0.60;;;16.20;99.90;;;;;;4956049;29;20196;-32
2023/10/14 12:54:16;;;;;;;0.50;0.50;;;16.10;99.90;;;;;;4938060;29;20256;-33
2023/10/14 12:56:43;;;;;;;1.53;0.73;;;16.00;99.90;;;;;;4956038;29;20209;-33
2023/10/14 12:59:14;;;;;;;0.87;0.77;;;15.80;99.90;;;;;;4938750;29;20280;-33
2023/10/14 13:01:46;;;;;;;1.43;0.80;;;15.70;99.90;;;;;;4938576;29;20217;-32
2023/10/14 13:04:16;;;;;;;1.00;0.70;;;15.60;99.90;;;;;;4938536;29;20232;-32
2023/10/14 13:06:44;;;;;;;0.80;0.70;;;15.40;99.90;;;;;;4928317;29;20226;-33
2023/10/14 13:09:14;;;;;;;1.00;0.70;;;15.30;99.90;;;;;;4921760;29;20276;-32
2023/10/14 13:11:43;;;;;;;2.60;0.90;;;15.30;99.90;;;;;;4937948;29;20196;-33
2023/10/14 13:14:11;;;;;;;0.60;0.60;;;15.30;99.90;;;;;;4937645;29;20724;-31
2023/10/14 13:16:37;;;;;;;2.93;1.00;;;15.30;99.90;;;;;;4937838;29;20272;-32
2023/10/14 13:19:04;;;;;;;1.47;0.80;;;15.30;99.90;;;;;;4937599;29;20220;-32
2023/10/14 13:21:30;;;;;;;0.70;0.70;;;15.20;99.90;;;;;;4937390;29;20215;-31
2023/10/14 13:23:57;;;;;;;0.60;0.60;;;15.30;99.90;;;;;;4937782;29;20189;-31
2023/10/14 13:26:23;;;;;;;0.80;0.53;;;15.30;99.90;;;;;;4937698;29;20202;-32
2023/10/14 13:28:52;;;;;;;0.70;0.70;;;15.30;99.90;;;;;;4938518;29;20191;-31
2023/10/14 13:31:20;;;;;;;1.63;0.90;;;15.10;99.90;;;;;;4937995;28;20185;-31
2023/10/14 13:33:47;;;;;;;1.70;0.90;;;15.00;99.90;;;;;;4937683;29;20189;-31
2023/10/14 13:36:16;;;;;;;1.33;0.90;;;15.10;99.90;;;;;;4950481;28;20228;-31
2023/10/14 13:38:43;;;;;;;1.30;1.00;;;15.00;99.90;;;;;;4925636;29;20189;-31
2023/10/14 13:41:13;;;;;;;0.80;0.80;;;14.90;99.90;;;;;;4937125;29;20213;-31
2023/10/14 13:43:39;;;;;;;1.33;0.90;;;14.90;99.90;;;;;;4938073;29;20244;-31
2023/10/14 13:46:06;;;;;;;2.13;1.10;;;14.90;99.90;;;;;;4930998;29;20209;-31
2023/10/14 13:48:33;;;;;;;1.30;1.00;;;14.90;99.90;;;;;;4936917;29;20181;-31